Estación municipal de Cercs - St.Jordi (Berguedà, )

Consulta los datos en tiempo real de la estación municipal de Cercs - St.Jordi





Hora UTC 03:25
Temperatura 21.5 ºC
Humedad 55.4 %
Presión 1023.5 hPa
Pluja 0.0 mm
Velocidad viento 1.1 km/h
Dirección viento WNW
Radiación solar 0.1 W/m²

Datos diarios 2026-09-06



Hora UTC (invierno +1h; verano +2h)
Temperatura (ºC) Humedad (%) Presión (hPa) Velocidad viento (km/h) Precipitación (mm) Radiación solar (W/m²)
Hora UTC Aire Humedad Presión Vel. Dir. Vel. Max Dir. Intent. máx 5 min. Rad. Sol.
00:05 23.1 55.1 1024.2 4.6 WNW 4.6 WNW 0.0 0.1
00:10 23.0 54.9 1024.2 1.3 NW 6.1 NNE 0.0 0.1
00:15 22.8 55.6 1024.1 2.8 SW 8.8 E 0.0 0.1
00:20 22.4 56.7 1024.1 0.6 SSW 6.1 S 0.0 0.1
00:25 22.4 56.9 1024.1 1.8 NW 8.8 NW 0.0 0.1
00:30 22.5 56.7 1024.1 0.2 SE 6.1 SE 0.0 0.1
00:35 22.2 57.5 1024.1 0.5 NNW 6.1 NW 0.0 0.1
00:40 22.2 57.5 1024.1 0.0 NW 3.4 NW 0.0 0.1
00:45 22.0 58.1 1024.0 0.0 NNE 0.0 NW 0.0 0.2
00:50 21.9 58.1 1024.0 0.1 ESE 3.4 ESE 0.0 0.2
00:55 21.9 58.1 1023.9 0.0 SSE 3.4 SSE 0.0 0.1
01:00 21.7 58.7 1023.9 0.0 NNE 0.0 ENE 0.0 0.1
01:05 21.7 58.9 1023.9 0.5 NNW 6.1 NW 0.0 0.1
01:10 21.7 58.3 1023.9 1.6 NW 8.8 NW 0.0 0.2
01:15 21.8 57.8 1023.9 0.8 NW 6.1 NW 0.0 0.1
01:20 21.7 58.1 1023.9 1.5 NW 6.1 NW 0.0 0.1
01:25 21.7 58.1 1023.9 0.0 NNE 0.0 WNW 0.0 0.1
01:30 21.7 57.9 1023.9 1.6 NW 8.8 W 0.0 0.1
01:35 21.7 57.7 1023.8 1.3 N 6.1 NNE 0.0 0.1
01:40 21.6 57.9 1023.9 1.2 NNW 6.1 NNE 0.0 0.1
01:45 21.9 56.9 1023.8 2.4 NNW 14.2 NW 0.0 0.1
01:50 22.0 56.7 1023.8 0.1 ENE 3.4 E 0.0 0.1
01:55 21.6 57.4 1023.8 0.1 SSW 3.4 SSW 0.0 0.1
02:00 21.5 57.8 1023.8 0.0 NNE 0.0 SSW 0.0 0.1
02:05 21.5 58.2 1023.7 0.0 NNE 0.0 N 0.0 0.1
02:10 21.3 58.7 1023.7 0.0 NNE 0.0 WSW 0.0 0.1
02:15 21.2 58.7 1023.7 1.0 N 6.1 NW 0.0 0.1
02:20 21.3 58.3 1023.7 0.7 NNW 6.1 NNW 0.0 0.1
02:25 21.5 57.4 1023.6 3.2 NNE 11.5 NE 0.0 0.1
02:30 21.7 57.0 1023.6 3.5 N 8.8 NW 0.0 0.1
02:35 21.9 56.2 1023.6 2.4 NNW 11.5 NE 0.0 0.1
02:40 21.6 57.3 1023.6 1.9 N 8.8 ESE 0.0 0.1
02:45 21.7 56.9 1023.6 2.8 NW 8.8 NNW 0.0 0.1
02:50 21.7 56.5 1023.5 1.8 NNW 6.1 NW 0.0 0.1
02:55 21.6 56.8 1023.5 1.9 NNW 6.1 ESE 0.0 0.1
03:00 21.6 56.8 1023.5 4.4 NNW 19.6 NNW 0.0 0.1
03:05 21.9 55.4 1023.6 3.3 N 11.5 NNW 0.0 0.1
03:10 22.0 54.3 1023.6 5.9 NW 11.5 WNW 0.0 0.1
03:15 22.0 54.2 1023.6 3.5 WNW 8.8 NNW 0.0 0.2
03:20 21.7 55.2 1023.5 1.4 NW 6.1 NNW 0.0 0.1
03:25 21.5 55.4 1023.5 1.1 WNW 6.1 WNW 0.0 0.1
Máxima 23.1 58.9 1024.2 5.9 NW 19.6 NNW 0.0 0.2
Mínima 20 54.2 1023.5
Total 0.0